Main page
METAR-TAF:

METAR-TAF

Airports :

Blackpool Airport

Blackpool, England

latitude: 53-46N, longitude: 003-02W, elevation: 10 m

Current weather observation

The report was made 12 minutes ago, at 06:20 UTC
Wind 9 kt from the West
Temperature 13°C
Humidity 82%
Pressure 1016 hPa
Visibility 10 km or more
Scattered clouds at a height of 1400 ft

METAR: EGNH 170620Z 28009KT 9999 SCT014 13/10 Q1016

Time: 07:32 (06:32 UTC)

Forecast

The report was made 31 minutes ago, at 06:01 UTC
Forecast valid from 17 at 06 UTC to 17 at 15 UTC
Wind 9 kt from the West
Visibility 10 km or more
Scattered clouds at a height of 1800 ft
Temporary
from 17 at 06 UTC to 17 at 14 UTC
Broken clouds at a height of 1400 ft
Becoming
from 17 at 12 UTC to 17 at 15 UTC
Wind 11 kt from the Northwest

TAF: EGNH 170601Z 1706/1715 26009KT 9999 SCT018 TEMPO 1706/1714 BKN014 BECMG 1712/1715 32011KT

Weather observations and forecasts of more than 4000 airports (METAR and TAF reports).

The available stations are represented by yellow and red dots on the map.

Hover mouse over dot to see the name of the station.

Then click to see weather observations and forecasts.

To change the map : click on the green buttons with a black cross to zoom in, on the green button with a dash to zoom out, or on the green arrows for adjacent maps.


METAR-TAF: